sensor_id;sensor_type;location;lat;lon;timestamp;P1;durP1;ratioP1;P2;durP2;ratioP2
6135;SDS011;24008;42.664;23.372;2023-02-24T00:00:25;14.63;;;10.30;;
6135;SDS011;24008;42.664;23.372;2023-02-24T00:03:02;19.80;;;10.47;;
6135;SDS011;24008;42.664;23.372;2023-02-24T00:05:36;15.83;;;8.97;;
6135;SDS011;24008;42.664;23.372;2023-02-24T00:08:08;16.20;;;8.93;;
6135;SDS011;24008;42.664;23.372;2023-02-24T00:10:35;15.20;;;10.13;;
6135;SDS011;24008;42.664;23.372;2023-02-24T00:13:02;15.83;;;10.13;;
6135;SDS011;24008;42.664;23.372;2023-02-24T00:15:29;16.93;;;10.33;;
6135;SDS011;24008;42.664;23.372;2023-02-24T00:17:56;14.43;;;9.27;;
6135;SDS011;24008;42.664;23.372;2023-02-24T00:20:23;15.77;;;10.40;;
6135;SDS011;24008;42.664;23.372;2023-02-24T00:22:51;15.30;;;9.63;;
6135;SDS011;24008;42.664;23.372;2023-02-24T00:25:37;15.53;;;10.77;;
6135;SDS011;24008;42.664;23.372;2023-02-24T00:28:04;15.83;;;11.00;;
6135;SDS011;24008;42.664;23.372;2023-02-24T00:30:32;17.83;;;11.17;;
6135;SDS011;24008;42.664;23.372;2023-02-24T00:32:59;14.90;;;9.40;;
6135;SDS011;24008;42.664;23.372;2023-02-24T00:35:26;17.00;;;8.00;;
6135;SDS011;24008;42.664;23.372;2023-02-24T00:37:55;13.30;;;9.00;;
6135;SDS011;24008;42.664;23.372;2023-02-24T00:40:22;14.90;;;9.13;;
6135;SDS011;24008;42.664;23.372;2023-02-24T00:42:50;13.27;;;9.67;;
6135;SDS011;24008;42.664;23.372;2023-02-24T00:45:18;14.17;;;8.97;;
6135;SDS011;24008;42.664;23.372;2023-02-24T00:47:44;13.40;;;8.77;;
6135;SDS011;24008;42.664;23.372;2023-02-24T00:50:11;16.10;;;10.97;;
6135;SDS011;24008;42.664;23.372;2023-02-24T00:52:38;15.63;;;11.03;;
6135;SDS011;24008;42.664;23.372;2023-02-24T00:55:07;17.57;;;10.80;;
6135;SDS011;24008;42.664;23.372;2023-02-24T00:57:39;17.67;;;10.57;;
6135;SDS011;24008;42.664;23.372;2023-02-24T01:00:07;18.33;;;11.00;;
6135;SDS011;24008;42.664;23.372;2023-02-24T01:02:39;17.13;;;11.37;;
6135;SDS011;24008;42.664;23.372;2023-02-24T01:05:06;16.20;;;10.60;;
6135;SDS011;24008;42.664;23.372;2023-02-24T01:07:33;16.73;;;9.80;;
6135;SDS011;24008;42.664;23.372;2023-02-24T01:10:00;15.50;;;10.13;;
6135;SDS011;24008;42.664;23.372;2023-02-24T01:12:30;16.60;;;10.57;;
6135;SDS011;24008;42.664;23.372;2023-02-24T01:15:14;16.50;;;10.70;;
6135;SDS011;24008;42.664;23.372;2023-02-24T01:17:42;14.43;;;9.07;;
6135;SDS011;24008;42.664;23.372;2023-02-24T01:20:09;15.87;;;10.97;;
6135;SDS011;24008;42.664;23.372;2023-02-24T01:22:42;16.70;;;10.10;;
6135;SDS011;24008;42.664;23.372;2023-02-24T01:25:10;15.37;;;9.27;;
6135;SDS011;24008;42.664;23.372;2023-02-24T01:27:38;14.53;;;9.87;;
6135;SDS011;24008;42.664;23.372;2023-02-24T01:30:06;14.23;;;9.73;;
6135;SDS011;24008;42.664;23.372;2023-02-24T01:32:38;16.53;;;10.17;;
6135;SDS011;24008;42.664;23.372;2023-02-24T01:35:05;16.67;;;10.33;;
6135;SDS011;24008;42.664;23.372;2023-02-24T01:37:32;12.93;;;9.13;;
6135;SDS011;24008;42.664;23.372;2023-02-24T01:39:59;16.43;;;8.83;;
6135;SDS011;24008;42.664;23.372;2023-02-24T01:42:32;14.33;;;9.17;;
6135;SDS011;24008;42.664;23.372;2023-02-24T01:45:09;15.07;;;10.03;;
6135;SDS011;24008;42.664;23.372;2023-02-24T01:47:39;13.87;;;8.87;;
6135;SDS011;24008;42.664;23.372;2023-02-24T01:50:07;13.07;;;8.53;;
6135;SDS011;24008;42.664;23.372;2023-02-24T01:52:39;13.33;;;8.90;;
6135;SDS011;24008;42.664;23.372;2023-02-24T01:55:09;13.33;;;7.43;;
6135;SDS011;24008;42.664;23.372;2023-02-24T01:57:40;10.27;;;6.93;;
6135;SDS011;24008;42.664;23.372;2023-02-24T02:00:09;11.87;;;7.17;;
6135;SDS011;24008;42.664;23.372;2023-02-24T02:02:55;14.77;;;8.93;;
6135;SDS011;24008;42.664;23.372;2023-02-24T02:05:24;14.30;;;8.60;;
6135;SDS011;24008;42.664;23.372;2023-02-24T02:07:51;15.87;;;8.93;;
6135;SDS011;24008;42.664;23.372;2023-02-24T02:10:19;13.83;;;8.53;;
6135;SDS011;24008;42.664;23.372;2023-02-24T02:12:47;10.90;;;7.13;;
6135;SDS011;24008;42.664;23.372;2023-02-24T02:15:16;12.50;;;7.60;;
6135;SDS011;24008;42.664;23.372;2023-02-24T02:17:47;11.77;;;8.00;;
6135;SDS011;24008;42.664;23.372;2023-02-24T02:20:34;12.50;;;7.97;;
6135;SDS011;24008;42.664;23.372;2023-02-24T02:23:34;13.90;;;7.00;;
6135;SDS011;24008;42.664;23.372;2023-02-24T02:26:24;10.80;;;6.00;;
6135;SDS011;24008;42.664;23.372;2023-02-24T02:32:28;14.57;;;7.90;;
6135;SDS011;24008;42.664;23.372;2023-02-24T02:35:20;19.00;;;10.07;;
6135;SDS011;24008;42.664;23.372;2023-02-24T02:37:51;15.80;;;8.17;;
6135;SDS011;24008;42.664;23.372;2023-02-24T02:40:23;18.23;;;9.17;;
6135;SDS011;24008;42.664;23.372;2023-02-24T02:42:53;14.53;;;8.27;;
6135;SDS011;24008;42.664;23.372;2023-02-24T02:45:26;14.17;;;7.53;;
6135;SDS011;24008;42.664;23.372;2023-02-24T02:47:58;13.97;;;6.37;;
6135;SDS011;24008;42.664;23.372;2023-02-24T02:50:33;10.90;;;6.83;;
6135;SDS011;24008;42.664;23.372;2023-02-24T02:53:05;10.90;;;7.23;;
6135;SDS011;24008;42.664;23.372;2023-02-24T02:55:37;11.50;;;6.23;;
6135;SDS011;24008;42.664;23.372;2023-02-24T02:58:12;13.53;;;7.50;;
6135;SDS011;24008;42.664;23.372;2023-02-24T03:00:43;9.60;;;6.83;;
6135;SDS011;24008;42.664;23.372;2023-02-24T03:03:25;14.50;;;8.07;;
6135;SDS011;24008;42.664;23.372;2023-02-24T03:05:58;14.17;;;7.73;;
6135;SDS011;24008;42.664;23.372;2023-02-24T03:08:29;13.80;;;7.57;;
6135;SDS011;24008;42.664;23.372;2023-02-24T03:11:02;10.80;;;7.37;;
6135;SDS011;24008;42.664;23.372;2023-02-24T03:13:33;19.47;;;9.57;;
6135;SDS011;24008;42.664;23.372;2023-02-24T03:16:03;16.40;;;8.97;;
6135;SDS011;24008;42.664;23.372;2023-02-24T03:18:32;13.27;;;8.10;;
6135;SDS011;24008;42.664;23.372;2023-02-24T03:21:04;13.90;;;7.50;;
6135;SDS011;24008;42.664;23.372;2023-02-24T03:23:33;12.00;;;6.47;;
6135;SDS011;24008;42.664;23.372;2023-02-24T03:26:04;11.50;;;5.80;;
6135;SDS011;24008;42.664;23.372;2023-02-24T03:28:43;9.00;;;5.27;;
6135;SDS011;24008;42.664;23.372;2023-02-24T03:31:17;9.83;;;6.13;;
6135;SDS011;24008;42.664;23.372;2023-02-24T03:33:54;8.47;;;5.30;;
6135;SDS011;24008;42.664;23.372;2023-02-24T03:36:29;8.73;;;4.63;;
6135;SDS011;24008;42.664;23.372;2023-02-24T03:38:57;9.67;;;5.30;;
6135;SDS011;24008;42.664;23.372;2023-02-24T03:41:26;7.77;;;4.97;;
6135;SDS011;24008;42.664;23.372;2023-02-24T03:43:59;10.33;;;6.23;;
6135;SDS011;24008;42.664;23.372;2023-02-24T03:46:29;12.40;;;7.60;;
6135;SDS011;24008;42.664;23.372;2023-02-24T03:48:58;14.73;;;7.57;;
6135;SDS011;24008;42.664;23.372;2023-02-24T03:51:35;13.23;;;7.70;;
6135;SDS011;24008;42.664;23.372;2023-02-24T03:54:06;20.70;;;10.53;;
6135;SDS011;24008;42.664;23.372;2023-02-24T03:56:45;15.50;;;8.47;;
6135;SDS011;24008;42.664;23.372;2023-02-24T03:59:25;13.13;;;8.07;;
6135;SDS011;24008;42.664;23.372;2023-02-24T04:02:04;14.77;;;8.40;;
6135;SDS011;24008;42.664;23.372;2023-02-24T04:04:38;16.67;;;8.60;;
6135;SDS011;24008;42.664;23.372;2023-02-24T04:07:13;16.13;;;9.03;;
6135;SDS011;24008;42.664;23.372;2023-02-24T04:09:49;18.83;;;8.97;;
6135;SDS011;24008;42.664;23.372;2023-02-24T04:12:29;16.83;;;9.60;;
6135;SDS011;24008;42.664;23.372;2023-02-24T04:15:02;15.40;;;8.80;;
6135;SDS011;24008;42.664;23.372;2023-02-24T04:17:34;16.57;;;8.73;;
6135;SDS011;24008;42.664;23.372;2023-02-24T04:20:07;14.93;;;7.07;;
6135;SDS011;24008;42.664;23.372;2023-02-24T04:22:42;11.73;;;7.00;;
6135;SDS011;24008;42.664;23.372;2023-02-24T04:25:13;16.83;;;8.07;;
6135;SDS011;24008;42.664;23.372;2023-02-24T04:27:43;14.63;;;8.13;;
6135;SDS011;24008;42.664;23.372;2023-02-24T04:30:12;16.93;;;8.43;;
6135;SDS011;24008;42.664;23.372;2023-02-24T04:32:39;18.63;;;9.07;;
6135;SDS011;24008;42.664;23.372;2023-02-24T04:35:09;19.20;;;9.67;;
6135;SDS011;24008;42.664;23.372;2023-02-24T04:37:39;22.77;;;11.17;;
6135;SDS011;24008;42.664;23.372;2023-02-24T04:40:09;23.00;;;11.17;;
6135;SDS011;24008;42.664;23.372;2023-02-24T04:42:37;14.67;;;8.60;;
6135;SDS011;24008;42.664;23.372;2023-02-24T04:45:10;21.00;;;8.37;;
6135;SDS011;24008;42.664;23.372;2023-02-24T04:47:38;18.53;;;9.73;;
6135;SDS011;24008;42.664;23.372;2023-02-24T04:50:07;11.90;;;6.97;;
6135;SDS011;24008;42.664;23.372;2023-02-24T04:52:35;13.90;;;7.27;;
6135;SDS011;24008;42.664;23.372;2023-02-24T04:55:05;13.10;;;7.07;;
6135;SDS011;24008;42.664;23.372;2023-02-24T04:57:34;10.73;;;6.47;;
6135;SDS011;24008;42.664;23.372;2023-02-24T05:00:02;12.67;;;6.40;;
6135;SDS011;24008;42.664;23.372;2023-02-24T05:02:37;8.23;;;5.10;;
6135;SDS011;24008;42.664;23.372;2023-02-24T05:05:04;10.70;;;5.47;;
6135;SDS011;24008;42.664;23.372;2023-02-24T05:07:33;8.30;;;5.17;;
6135;SDS011;24008;42.664;23.372;2023-02-24T05:10:00;9.87;;;5.87;;
6135;SDS011;24008;42.664;23.372;2023-02-24T05:12:28;15.30;;;8.77;;
6135;SDS011;24008;42.664;23.372;2023-02-24T05:14:56;21.57;;;11.10;;
6135;SDS011;24008;42.664;23.372;2023-02-24T05:17:25;22.60;;;12.53;;
6135;SDS011;24008;42.664;23.372;2023-02-24T05:19:52;28.07;;;13.70;;
6135;SDS011;24008;42.664;23.372;2023-02-24T05:22:36;20.03;;;10.53;;
6135;SDS011;24008;42.664;23.372;2023-02-24T05:25:03;15.83;;;8.37;;
6135;SDS011;24008;42.664;23.372;2023-02-24T05:27:31;16.87;;;7.90;;
6135;SDS011;24008;42.664;23.372;2023-02-24T05:30:04;16.47;;;9.13;;
6135;SDS011;24008;42.664;23.372;2023-02-24T05:32:34;15.50;;;8.73;;
6135;SDS011;24008;42.664;23.372;2023-02-24T05:35:01;13.60;;;7.90;;
6135;SDS011;24008;42.664;23.372;2023-02-24T05:37:47;13.23;;;7.30;;
6135;SDS011;24008;42.664;23.372;2023-02-24T05:40:16;15.07;;;6.73;;
6135;SDS011;24008;42.664;23.372;2023-02-24T05:42:48;11.70;;;6.47;;
6135;SDS011;24008;42.664;23.372;2023-02-24T05:45:16;12.17;;;6.23;;
6135;SDS011;24008;42.664;23.372;2023-02-24T05:47:43;12.87;;;6.73;;
6135;SDS011;24008;42.664;23.372;2023-02-24T05:50:11;12.90;;;7.33;;
6135;SDS011;24008;42.664;23.372;2023-02-24T05:52:38;18.43;;;9.43;;
6135;SDS011;24008;42.664;23.372;2023-02-24T05:55:05;14.60;;;8.07;;
6135;SDS011;24008;42.664;23.372;2023-02-24T05:57:38;21.07;;;10.50;;
6135;SDS011;24008;42.664;23.372;2023-02-24T06:00:07;21.50;;;10.87;;
6135;SDS011;24008;42.664;23.372;2023-02-24T06:02:40;17.70;;;8.93;;
6135;SDS011;24008;42.664;23.372;2023-02-24T06:05:14;18.53;;;9.40;;
6135;SDS011;24008;42.664;23.372;2023-02-24T06:07:49;13.70;;;8.37;;
6135;SDS011;24008;42.664;23.372;2023-02-24T06:10:27;20.17;;;9.10;;
6135;SDS011;24008;42.664;23.372;2023-02-24T06:12:57;17.73;;;9.37;;
6135;SDS011;24008;42.664;23.372;2023-02-24T06:15:26;17.37;;;9.67;;
6135;SDS011;24008;42.664;23.372;2023-02-24T06:17:54;18.53;;;9.33;;
6135;SDS011;24008;42.664;23.372;2023-02-24T06:20:23;22.47;;;9.17;;
6135;SDS011;24008;42.664;23.372;2023-02-24T06:22:51;17.60;;;9.30;;
6135;SDS011;24008;42.664;23.372;2023-02-24T06:25:19;17.57;;;9.30;;
6135;SDS011;24008;42.664;23.372;2023-02-24T06:27:49;17.70;;;9.03;;
6135;SDS011;24008;42.664;23.372;2023-02-24T06:30:19;14.23;;;8.37;;
6135;SDS011;24008;42.664;23.372;2023-02-24T06:32:49;18.03;;;9.30;;
6135;SDS011;24008;42.664;23.372;2023-02-24T06:35:16;21.20;;;10.90;;
6135;SDS011;24008;42.664;23.372;2023-02-24T06:37:43;22.70;;;10.83;;
6135;SDS011;24008;42.664;23.372;2023-02-24T06:40:10;18.70;;;9.80;;
6135;SDS011;24008;42.664;23.372;2023-02-24T06:42:42;16.20;;;9.70;;
6135;SDS011;24008;42.664;23.372;2023-02-24T06:45:10;14.23;;;8.70;;
6135;SDS011;24008;42.664;23.372;2023-02-24T06:47:37;17.00;;;10.00;;
6135;SDS011;24008;42.664;23.372;2023-02-24T06:50:06;16.53;;;9.10;;
6135;SDS011;24008;42.664;23.372;2023-02-24T06:52:34;14.13;;;8.30;;
6135;SDS011;24008;42.664;23.372;2023-02-24T06:55:01;15.40;;;9.27;;
6135;SDS011;24008;42.664;23.372;2023-02-24T06:57:29;12.90;;;8.40;;
6135;SDS011;24008;42.664;23.372;2023-02-24T06:59:58;18.60;;;8.83;;
6135;SDS011;24008;42.664;23.372;2023-02-24T07:02:40;13.97;;;7.87;;
6135;SDS011;24008;42.664;23.372;2023-02-24T07:05:09;16.27;;;8.50;;
6135;SDS011;24008;42.664;23.372;2023-02-24T07:07:38;18.07;;;8.43;;
6135;SDS011;24008;42.664;23.372;2023-02-24T07:10:10;16.50;;;8.97;;
6135;SDS011;24008;42.664;23.372;2023-02-24T07:12:38;15.37;;;9.17;;
6135;SDS011;24008;42.664;23.372;2023-02-24T07:15:06;15.77;;;9.20;;
6135;SDS011;24008;42.664;23.372;2023-02-24T07:17:33;17.30;;;9.07;;
6135;SDS011;24008;42.664;23.372;2023-02-24T07:20:04;19.20;;;9.27;;
6135;SDS011;24008;42.664;23.372;2023-02-24T07:22:37;17.47;;;8.90;;
6135;SDS011;24008;42.664;23.372;2023-02-24T07:25:04;14.50;;;8.73;;
6135;SDS011;24008;42.664;23.372;2023-02-24T07:27:31;16.63;;;9.03;;
6135;SDS011;24008;42.664;23.372;2023-02-24T07:29:58;20.37;;;10.17;;
6135;SDS011;24008;42.664;23.372;2023-02-24T07:32:30;18.20;;;9.47;;
6135;SDS011;24008;42.664;23.372;2023-02-24T07:34:57;16.63;;;9.13;;
6135;SDS011;24008;42.664;23.372;2023-02-24T07:37:23;14.23;;;8.50;;
6135;SDS011;24008;42.664;23.372;2023-02-24T07:39:57;17.10;;;8.67;;
6135;SDS011;24008;42.664;23.372;2023-02-24T07:42:23;13.10;;;7.93;;
6135;SDS011;24008;42.664;23.372;2023-02-24T07:44:54;14.40;;;7.57;;
6135;SDS011;24008;42.664;23.372;2023-02-24T07:47:21;15.40;;;7.90;;
6135;SDS011;24008;42.664;23.372;2023-02-24T07:49:49;13.33;;;7.17;;
6135;SDS011;24008;42.664;23.372;2023-02-24T07:52:15;13.17;;;8.00;;
6135;SDS011;24008;42.664;23.372;2023-02-24T07:54:42;18.93;;;8.43;;
6135;SDS011;24008;42.664;23.372;2023-02-24T07:57:11;19.67;;;7.90;;
6135;SDS011;24008;42.664;23.372;2023-02-24T07:59:38;17.37;;;8.70;;
6135;SDS011;24008;42.664;23.372;2023-02-24T08:02:11;13.97;;;8.00;;
6135;SDS011;24008;42.664;23.372;2023-02-24T08:04:38;14.77;;;8.20;;
6135;SDS011;24008;42.664;23.372;2023-02-24T08:07:08;16.50;;;8.43;;
6135;SDS011;24008;42.664;23.372;2023-02-24T08:09:38;21.10;;;9.93;;
6135;SDS011;24008;42.664;23.372;2023-02-24T08:12:29;18.10;;;9.23;;
6135;SDS011;24008;42.664;23.372;2023-02-24T08:14:58;15.03;;;8.27;;
6135;SDS011;24008;42.664;23.372;2023-02-24T08:17:33;16.00;;;8.57;;
6135;SDS011;24008;42.664;23.372;2023-02-24T08:20:00;18.93;;;9.17;;
6135;SDS011;24008;42.664;23.372;2023-02-24T08:22:41;20.37;;;9.43;;
6135;SDS011;24008;42.664;23.372;2023-02-24T08:25:11;17.97;;;9.13;;
6135;SDS011;24008;42.664;23.372;2023-02-24T08:27:44;17.53;;;9.00;;
6135;SDS011;24008;42.664;23.372;2023-02-24T08:30:16;21.33;;;9.43;;
6135;SDS011;24008;42.664;23.372;2023-02-24T08:32:48;16.13;;;9.13;;
6135;SDS011;24008;42.664;23.372;2023-02-24T08:35:22;21.27;;;10.10;;
6135;SDS011;24008;42.664;23.372;2023-02-24T08:37:56;13.70;;;8.10;;
6135;SDS011;24008;42.664;23.372;2023-02-24T08:40:30;14.00;;;8.77;;
6135;SDS011;24008;42.664;23.372;2023-02-24T08:43:19;22.67;;;9.37;;
6135;SDS011;24008;42.664;23.372;2023-02-24T08:45:57;20.43;;;8.67;;
6135;SDS011;24008;42.664;23.372;2023-02-24T08:48:28;17.20;;;8.87;;
6135;SDS011;24008;42.664;23.372;2023-02-24T08:51:04;17.03;;;8.73;;
6135;SDS011;24008;42.664;23.372;2023-02-24T08:53:34;15.87;;;9.13;;
6135;SDS011;24008;42.664;23.372;2023-02-24T08:56:05;20.10;;;9.40;;
6135;SDS011;24008;42.664;23.372;2023-02-24T08:58:39;14.37;;;9.03;;
6135;SDS011;24008;42.664;23.372;2023-02-24T09:01:12;18.90;;;8.77;;
6135;SDS011;24008;42.664;23.372;2023-02-24T09:03:44;17.57;;;9.30;;
6135;SDS011;24008;42.664;23.372;2023-02-24T09:06:13;15.87;;;9.37;;
6135;SDS011;24008;42.664;23.372;2023-02-24T09:08:42;17.00;;;10.03;;
6135;SDS011;24008;42.664;23.372;2023-02-24T09:11:12;20.03;;;10.23;;
6135;SDS011;24008;42.664;23.372;2023-02-24T09:13:42;17.03;;;10.00;;
6135;SDS011;24008;42.664;23.372;2023-02-24T09:16:19;17.47;;;10.60;;
6135;SDS011;24008;42.664;23.372;2023-02-24T09:18:47;18.03;;;9.93;;
6135;SDS011;24008;42.664;23.372;2023-02-24T09:21:35;20.37;;;9.57;;
6135;SDS011;24008;42.664;23.372;2023-02-24T09:24:19;16.27;;;8.33;;
6135;SDS011;24008;42.664;23.372;2023-02-24T09:26:51;18.03;;;9.03;;
6135;SDS011;24008;42.664;23.372;2023-02-24T09:29:24;12.73;;;8.37;;
6135;SDS011;24008;42.664;23.372;2023-02-24T09:32:13;15.97;;;8.03;;
6135;SDS011;24008;42.664;23.372;2023-02-24T09:34:41;16.03;;;9.97;;
6135;SDS011;24008;42.664;23.372;2023-02-24T09:37:09;15.33;;;8.47;;
6135;SDS011;24008;42.664;23.372;2023-02-24T09:39:49;19.87;;;8.93;;
6135;SDS011;24008;42.664;23.372;2023-02-24T09:42:33;14.83;;;8.83;;
6135;SDS011;24008;42.664;23.372;2023-02-24T09:45:13;15.53;;;9.37;;
6135;SDS011;24008;42.664;23.372;2023-02-24T09:47:57;15.03;;;9.20;;
6135;SDS011;24008;42.664;23.372;2023-02-24T09:50:35;17.97;;;10.00;;
6135;SDS011;24008;42.664;23.372;2023-02-24T09:53:19;15.13;;;9.07;;
6135;SDS011;24008;42.664;23.372;2023-02-24T09:55:50;16.47;;;9.87;;
6135;SDS011;24008;42.664;23.372;2023-02-24T09:58:35;16.57;;;9.20;;
6135;SDS011;24008;42.664;23.372;2023-02-24T10:01:25;16.40;;;9.37;;
6135;SDS011;24008;42.664;23.372;2023-02-24T10:03:59;14.40;;;9.43;;
6135;SDS011;24008;42.664;23.372;2023-02-24T10:06:36;23.30;;;9.20;;
6135;SDS011;24008;42.664;23.372;2023-02-24T10:09:07;15.70;;;8.83;;
6135;SDS011;24008;42.664;23.372;2023-02-24T10:11:40;18.87;;;10.03;;
6135;SDS011;24008;42.664;23.372;2023-02-24T10:14:19;20.37;;;9.37;;
6135;SDS011;24008;42.664;23.372;2023-02-24T10:16:54;17.37;;;8.83;;
6135;SDS011;24008;42.664;23.372;2023-02-24T10:19:39;18.13;;;9.47;;
6135;SDS011;24008;42.664;23.372;2023-02-24T10:22:10;15.87;;;9.33;;
6135;SDS011;24008;42.664;23.372;2023-02-24T10:24:53;16.27;;;9.23;;
6135;SDS011;24008;42.664;23.372;2023-02-24T10:27:48;15.63;;;9.03;;
6135;SDS011;24008;42.664;23.372;2023-02-24T10:30:32;13.17;;;9.00;;
6135;SDS011;24008;42.664;23.372;2023-02-24T10:33:18;14.30;;;9.03;;
6135;SDS011;24008;42.664;23.372;2023-02-24T10:35:50;19.17;;;9.87;;
6135;SDS011;24008;42.664;23.372;2023-02-24T10:38:19;14.53;;;8.53;;
6135;SDS011;24008;42.664;23.372;2023-02-24T10:40:48;17.67;;;10.10;;
6135;SDS011;24008;42.664;23.372;2023-02-24T10:43:21;17.50;;;10.00;;
6135;SDS011;24008;42.664;23.372;2023-02-24T10:45:55;17.70;;;9.97;;
6135;SDS011;24008;42.664;23.372;2023-02-24T10:48:32;19.83;;;10.37;;
6135;SDS011;24008;42.664;23.372;2023-02-24T10:51:07;20.47;;;10.77;;
6135;SDS011;24008;42.664;23.372;2023-02-24T10:53:45;18.43;;;10.50;;
6135;SDS011;24008;42.664;23.372;2023-02-24T10:56:17;16.73;;;10.63;;
6135;SDS011;24008;42.664;23.372;2023-02-24T10:58:58;19.97;;;12.50;;
6135;SDS011;24008;42.664;23.372;2023-02-24T11:01:41;17.70;;;11.37;;
6135;SDS011;24008;42.664;23.372;2023-02-24T11:04:20;20.20;;;11.57;;
6135;SDS011;24008;42.664;23.372;2023-02-24T11:07:10;16.27;;;10.43;;
6135;SDS011;24008;42.664;23.372;2023-02-24T11:09:48;20.27;;;11.67;;
6135;SDS011;24008;42.664;23.372;2023-02-24T11:12:35;19.13;;;11.33;;
6135;SDS011;24008;42.664;23.372;2023-02-24T11:15:21;24.03;;;11.70;;
6135;SDS011;24008;42.664;23.372;2023-02-24T11:18:25;19.40;;;10.93;;
6135;SDS011;24008;42.664;23.372;2023-02-24T11:20:56;18.13;;;11.00;;
6135;SDS011;24008;42.664;23.372;2023-02-24T11:23:26;18.80;;;10.83;;
6135;SDS011;24008;42.664;23.372;2023-02-24T11:25:57;22.10;;;11.00;;
6135;SDS011;24008;42.664;23.372;2023-02-24T11:28:33;18.27;;;11.40;;
6135;SDS011;24008;42.664;23.372;2023-02-24T11:31:19;19.83;;;11.63;;
6135;SDS011;24008;42.664;23.372;2023-02-24T11:33:57;20.00;;;12.30;;
6135;SDS011;24008;42.664;23.372;2023-02-24T11:36:33;19.07;;;11.80;;
6135;SDS011;24008;42.664;23.372;2023-02-24T11:39:06;20.40;;;11.70;;
6135;SDS011;24008;42.664;23.372;2023-02-24T11:41:54;21.07;;;12.30;;
6135;SDS011;24008;42.664;23.372;2023-02-24T11:44:25;23.10;;;11.80;;
6135;SDS011;24008;42.664;23.372;2023-02-24T11:47:00;20.60;;;12.80;;
6135;SDS011;24008;42.664;23.372;2023-02-24T11:49:34;20.90;;;12.53;;
6135;SDS011;24008;42.664;23.372;2023-02-24T11:52:11;18.83;;;12.07;;
6135;SDS011;24008;42.664;23.372;2023-02-24T11:54:45;19.87;;;12.40;;
6135;SDS011;24008;42.664;23.372;2023-02-24T11:57:16;19.17;;;12.47;;
6135;SDS011;24008;42.664;23.372;2023-02-24T11:59:47;16.53;;;10.67;;
6135;SDS011;24008;42.664;23.372;2023-02-24T12:02:18;19.73;;;11.83;;
6135;SDS011;24008;42.664;23.372;2023-02-24T12:04:56;21.03;;;12.20;;
6135;SDS011;24008;42.664;23.372;2023-02-24T12:07:29;17.13;;;11.10;;
6135;SDS011;24008;42.664;23.372;2023-02-24T12:10:02;24.17;;;11.90;;
6135;SDS011;24008;42.664;23.372;2023-02-24T12:12:34;20.23;;;10.93;;
6135;SDS011;24008;42.664;23.372;2023-02-24T12:15:09;19.50;;;11.50;;
6135;SDS011;24008;42.664;23.372;2023-02-24T12:17:41;19.33;;;11.40;;
6135;SDS011;24008;42.664;23.372;2023-02-24T12:20:17;18.10;;;10.93;;
6135;SDS011;24008;42.664;23.372;2023-02-24T12:22:51;22.33;;;11.53;;
6135;SDS011;24008;42.664;23.372;2023-02-24T12:25:23;17.27;;;11.03;;
6135;SDS011;24008;42.664;23.372;2023-02-24T12:27:59;17.40;;;11.10;;
6135;SDS011;24008;42.664;23.372;2023-02-24T12:30:40;14.20;;;9.90;;
6135;SDS011;24008;42.664;23.372;2023-02-24T12:33:25;20.03;;;11.40;;
6135;SDS011;24008;42.664;23.372;2023-02-24T12:36:00;18.43;;;11.77;;
6135;SDS011;24008;42.664;23.372;2023-02-24T12:38:50;20.70;;;12.37;;
6135;SDS011;24008;42.664;23.372;2023-02-24T12:41:32;22.43;;;13.03;;
6135;SDS011;24008;42.664;23.372;2023-02-24T12:44:13;22.17;;;12.87;;
6135;SDS011;24008;42.664;23.372;2023-02-24T12:46:50;18.43;;;11.87;;
6135;SDS011;24008;42.664;23.372;2023-02-24T12:49:27;20.60;;;11.90;;
6135;SDS011;24008;42.664;23.372;2023-02-24T12:52:07;20.17;;;11.97;;
6135;SDS011;24008;42.664;23.372;2023-02-24T12:54:45;17.47;;;12.70;;
6135;SDS011;24008;42.664;23.372;2023-02-24T12:57:16;20.87;;;11.83;;
6135;SDS011;24008;42.664;23.372;2023-02-24T12:59:52;19.60;;;12.77;;
6135;SDS011;24008;42.664;23.372;2023-02-24T13:02:21;21.07;;;12.60;;
6135;SDS011;24008;42.664;23.372;2023-02-24T13:05:02;19.27;;;12.67;;
6135;SDS011;24008;42.664;23.372;2023-02-24T13:07:47;22.97;;;13.13;;
6135;SDS011;24008;42.664;23.372;2023-02-24T13:10:29;22.17;;;12.90;;
6135;SDS011;24008;42.664;23.372;2023-02-24T13:13:06;22.37;;;12.43;;
6135;SDS011;24008;42.664;23.372;2023-02-24T13:15:47;22.00;;;12.77;;
6135;SDS011;24008;42.664;23.372;2023-02-24T13:18:22;20.33;;;12.43;;
6135;SDS011;24008;42.664;23.372;2023-02-24T13:20:59;23.97;;;12.93;;
6135;SDS011;24008;42.664;23.372;2023-02-24T13:23:31;26.50;;;12.70;;
6135;SDS011;24008;42.664;23.372;2023-02-24T13:25:59;23.70;;;13.07;;
6135;SDS011;24008;42.664;23.372;2023-02-24T13:28:27;21.20;;;13.37;;
6135;SDS011;24008;42.664;23.372;2023-02-24T13:30:58;21.23;;;13.23;;
6135;SDS011;24008;42.664;23.372;2023-02-24T13:33:27;20.37;;;12.80;;
6135;SDS011;24008;42.664;23.372;2023-02-24T13:36:13;23.57;;;12.33;;
6135;SDS011;24008;42.664;23.372;2023-02-24T13:38:46;23.00;;;12.80;;
6135;SDS011;24008;42.664;23.372;2023-02-24T13:41:23;28.00;;;14.47;;
6135;SDS011;24008;42.664;23.372;2023-02-24T13:44:02;22.13;;;14.83;;
6135;SDS011;24008;42.664;23.372;2023-02-24T13:46:48;23.93;;;14.90;;
6135;SDS011;24008;42.664;23.372;2023-02-24T13:49:27;23.17;;;14.40;;
6135;SDS011;24008;42.664;23.372;2023-02-24T13:52:02;28.00;;;16.90;;
6135;SDS011;24008;42.664;23.372;2023-02-24T13:54:47;29.77;;;17.80;;
6135;SDS011;24008;42.664;23.372;2023-02-24T14:00:21;29.60;;;17.33;;
6135;SDS011;24008;42.664;23.372;2023-02-24T14:02:53;30.83;;;17.30;;
6135;SDS011;24008;42.664;23.372;2023-02-24T14:05:21;28.00;;;16.47;;
6135;SDS011;24008;42.664;23.372;2023-02-24T14:07:50;32.47;;;17.63;;
6135;SDS011;24008;42.664;23.372;2023-02-24T14:10:19;31.40;;;18.67;;
6135;SDS011;24008;42.664;23.372;2023-02-24T14:12:54;32.23;;;18.17;;
6135;SDS011;24008;42.664;23.372;2023-02-24T14:15:28;30.63;;;17.77;;
6135;SDS011;24008;42.664;23.372;2023-02-24T14:17:56;28.20;;;16.93;;
6135;SDS011;24008;42.664;23.372;2023-02-24T14:20:25;28.47;;;16.33;;
6135;SDS011;24008;42.664;23.372;2023-02-24T14:22:53;28.33;;;16.50;;
6135;SDS011;24008;42.664;23.372;2023-02-24T14:25:23;29.13;;;17.07;;
6135;SDS011;24008;42.664;23.372;2023-02-24T14:27:53;28.07;;;17.07;;
6135;SDS011;24008;42.664;23.372;2023-02-24T14:30:23;29.63;;;17.70;;
6135;SDS011;24008;42.664;23.372;2023-02-24T14:32:51;36.07;;;18.37;;
6135;SDS011;24008;42.664;23.372;2023-02-24T14:35:19;31.10;;;16.63;;
6135;SDS011;24008;42.664;23.372;2023-02-24T14:37:49;26.80;;;16.70;;
6135;SDS011;24008;42.664;23.372;2023-02-24T14:40:16;34.50;;;15.90;;
6135;SDS011;24008;42.664;23.372;2023-02-24T14:42:46;31.97;;;17.53;;
6135;SDS011;24008;42.664;23.372;2023-02-24T14:45:16;35.73;;;20.07;;
6135;SDS011;24008;42.664;23.372;2023-02-24T14:47:44;38.77;;;21.70;;
6135;SDS011;24008;42.664;23.372;2023-02-24T14:50:14;39.80;;;24.33;;
6135;SDS011;24008;42.664;23.372;2023-02-24T14:52:43;44.30;;;26.10;;
6135;SDS011;24008;42.664;23.372;2023-02-24T14:55:15;42.73;;;26.20;;
6135;SDS011;24008;42.664;23.372;2023-02-24T14:57:48;39.20;;;24.87;;
6135;SDS011;24008;42.664;23.372;2023-02-24T15:00:22;40.47;;;24.60;;
6135;SDS011;24008;42.664;23.372;2023-02-24T15:02:52;39.27;;;23.00;;
6135;SDS011;24008;42.664;23.372;2023-02-24T15:05:26;35.43;;;22.27;;
6135;SDS011;24008;42.664;23.372;2023-02-24T15:07:53;38.73;;;22.57;;